sensor_id;sensor_type;location;lat;lon;timestamp;pressure;altitude;pressure_sealevel;temperature;humidity
34243;BME280;20504;43.214;27.920;2022-09-09T00:10:38;99524.41;;;22.61;100.00
34243;BME280;20504;43.214;27.920;2022-09-09T00:13:31;99535.06;;;22.70;100.00
34243;BME280;20504;43.214;27.920;2022-09-09T00:16:29;99519.63;;;22.63;100.00
34243;BME280;20504;43.214;27.920;2022-09-09T00:22:29;99439.38;;;23.32;100.00
34243;BME280;20504;43.214;27.920;2022-09-09T00:27:19;99438.28;;;22.93;100.00
34243;BME280;20504;43.214;27.920;2022-09-09T00:29:52;99484.06;;;23.14;100.00
34243;BME280;20504;43.214;27.920;2022-09-09T00:32:20;99489.69;;;23.19;100.00
34243;BME280;20504;43.214;27.920;2022-09-09T00:37:18;99501.50;;;23.05;100.00
34243;BME280;20504;43.214;27.920;2022-09-09T00:39:55;99501.84;;;22.82;100.00
34243;BME280;20504;43.214;27.920;2022-09-09T00:42:44;99517.72;;;22.99;100.00
34243;BME280;20504;43.214;27.920;2022-09-09T00:48:10;99519.09;;;22.81;100.00
34243;BME280;20504;43.214;27.920;2022-09-09T00:56:25;99442.66;;;22.46;100.00
34243;BME280;20504;43.214;27.920;2022-09-09T00:59:31;99477.28;;;22.71;100.00
34243;BME280;20504;43.214;27.920;2022-09-09T01:01:53;99480.19;;;22.76;100.00
34243;BME280;20504;43.214;27.920;2022-09-09T01:04:35;99505.16;;;22.78;100.00
34243;BME280;20504;43.214;27.920;2022-09-09T01:07:15;99487.44;;;22.69;100.00
34243;BME280;20504;43.214;27.920;2022-09-09T01:10:00;99511.56;;;22.70;100.00
34243;BME280;20504;43.214;27.920;2022-09-09T01:12:43;99504.03;;;22.65;100.00
34243;BME280;20504;43.214;27.920;2022-09-09T01:15:19;99473.81;;;22.42;100.00
34243;BME280;20504;43.214;27.920;2022-09-09T01:18:03;99461.75;;;22.38;100.00
34243;BME280;20504;43.214;27.920;2022-09-09T01:23:42;99496.72;;;22.53;100.00
34243;BME280;20504;43.214;27.920;2022-09-09T01:29:00;99487.75;;;22.46;100.00
34243;BME280;20504;43.214;27.920;2022-09-09T01:31:41;99468.59;;;22.34;100.00
34243;BME280;20504;43.214;27.920;2022-09-09T01:34:14;99489.22;;;22.48;100.00
34243;BME280;20504;43.214;27.920;2022-09-09T01:36:55;99481.31;;;22.47;100.00
34243;BME280;20504;43.214;27.920;2022-09-09T01:39:25;99490.19;;;22.34;100.00
34243;BME280;20504;43.214;27.920;2022-09-09T01:42:05;99477.13;;;22.44;100.00
34243;BME280;20504;43.214;27.920;2022-09-09T01:44:32;99478.78;;;22.39;100.00
34243;BME280;20504;43.214;27.920;2022-09-09T01:46:58;99473.81;;;22.42;100.00
34243;BME280;20504;43.214;27.920;2022-09-09T01:49:23;99445.91;;;22.28;100.00
34243;BME280;20504;43.214;27.920;2022-09-09T01:51:52;99447.75;;;22.21;100.00
34243;BME280;20504;43.214;27.920;2022-09-09T01:54:19;99470.25;;;22.35;100.00
34243;BME280;20504;43.214;27.920;2022-09-09T02:00:29;99466.63;;;21.59;100.00
34243;BME280;20504;43.214;27.920;2022-09-09T02:02:32;99423.72;;;21.42;100.00
34243;BME280;20504;43.214;27.920;2022-09-09T02:07:52;99372.72;;;21.48;100.00
34243;BME280;20504;43.214;27.920;2022-09-09T02:11:21;99352.09;;;21.33;100.00
34243;BME280;20504;43.214;27.920;2022-09-09T02:13:21;99315.97;;;21.28;100.00
34243;BME280;20504;43.214;27.920;2022-09-09T02:16:08;99308.06;;;21.26;100.00
34243;BME280;20504;43.214;27.920;2022-09-09T02:18:56;99313.69;;;21.31;100.00
34243;BME280;20504;43.214;27.920;2022-09-09T02:21:27;99288.53;;;22.00;100.00
34243;BME280;20504;43.214;27.920;2022-09-09T02:23:55;99321.13;;;21.98;100.00
34243;BME280;20504;43.214;27.920;2022-09-09T02:26:24;99352.53;;;22.06;100.00
34243;BME280;20504;43.214;27.920;2022-09-09T02:28:57;99351.41;;;21.94;100.00
34243;BME280;20504;43.214;27.920;2022-09-09T02:31:28;99325.19;;;21.81;100.00
34243;BME280;20504;43.214;27.920;2022-09-09T02:34:13;99340.59;;;21.87;100.00
34243;BME280;20504;43.214;27.920;2022-09-09T02:36:58;99375.13;;;21.98;100.00
34243;BME280;20504;43.214;27.920;2022-09-09T02:39:34;99360.84;;;22.04;100.00
34243;BME280;20504;43.214;27.920;2022-09-09T02:42:08;99362.25;;;22.00;100.00
34243;BME280;20504;43.214;27.920;2022-09-09T02:44:50;99375.75;;;22.00;100.00
34243;BME280;20504;43.214;27.920;2022-09-09T02:47:26;99377.41;;;22.01;100.00
34243;BME280;20504;43.214;27.920;2022-09-09T02:50:22;99357.88;;;21.99;100.00
34243;BME280;20504;43.214;27.920;2022-09-09T02:53:12;99344.81;;;21.96;100.00
34243;BME280;20504;43.214;27.920;2022-09-09T02:56:18;99365.16;;;21.99;100.00
34243;BME280;20504;43.214;27.920;2022-09-09T02:58:46;99360.19;;;22.02;100.00
34243;BME280;20504;43.214;27.920;2022-09-09T03:01:12;99355.19;;;21.99;100.00
34243;BME280;20504;43.214;27.920;2022-09-09T03:03:38;99336.84;;;21.88;100.00
34243;BME280;20504;43.214;27.920;2022-09-09T03:06:11;99352.06;;;21.96;100.00
34243;BME280;20504;43.214;27.920;2022-09-09T03:08:40;99319.38;;;21.77;100.00
34243;BME280;20504;43.214;27.920;2022-09-09T03:11:05;99309.47;;;21.91;100.00
34243;BME280;20504;43.214;27.920;2022-09-09T03:13:35;99331.72;;;22.00;100.00
34243;BME280;20504;43.214;27.920;2022-09-09T03:16:02;99303.63;;;21.81;100.00
34243;BME280;20504;43.214;27.920;2022-09-09T03:18:35;99301.91;;;21.73;100.00
34243;BME280;20504;43.214;27.920;2022-09-09T03:21:04;99303.13;;;21.64;100.00
34243;BME280;20504;43.214;27.920;2022-09-09T03:23:31;99321.47;;;21.82;100.00
34243;BME280;20504;43.214;27.920;2022-09-09T03:25:59;99290.06;;;21.68;100.00
34243;BME280;20504;43.214;27.920;2022-09-09T03:28:26;99331.47;;;21.88;100.00
34243;BME280;20504;43.214;27.920;2022-09-09T03:31:05;99326.31;;;22.00;100.00
34243;BME280;20504;43.214;27.920;2022-09-09T03:33:40;99334.34;;;21.87;100.00
34243;BME280;20504;43.214;27.920;2022-09-09T03:36:12;99294.41;;;21.69;100.00
34243;BME280;20504;43.214;27.920;2022-09-09T03:38:44;99306.53;;;21.86;100.00
34243;BME280;20504;43.214;27.920;2022-09-09T03:41:15;99258.72;;;21.67;100.00
34243;BME280;20504;43.214;27.920;2022-09-09T03:43:41;98037.75;;;21.84;100.00
34243;BME280;20504;43.214;27.920;2022-09-09T03:46:07;97909.94;;;21.97;100.00
34243;BME280;20504;43.214;27.920;2022-09-09T03:48:32;97904.06;;;21.88;100.00
34243;BME280;20504;43.214;27.920;2022-09-09T03:51:25;97872.88;;;21.57;100.00
34243;BME280;20504;43.214;27.920;2022-09-09T03:53:50;97838.72;;;21.74;100.00
34243;BME280;20504;43.214;27.920;2022-09-09T03:56:22;97632.94;;;21.22;100.00
34243;BME280;20504;43.214;27.920;2022-09-09T03:58:47;96727.88;;;21.58;100.00
34243;BME280;20504;43.214;27.920;2022-09-09T04:01:14;96712.38;;;21.85;100.00
34243;BME280;20504;43.214;27.920;2022-09-09T04:03:40;96599.34;;;21.73;100.00
34243;BME280;20504;43.214;27.920;2022-09-09T04:06:07;96539.53;;;21.82;100.00
34243;BME280;20504;43.214;27.920;2022-09-09T04:08:39;96549.56;;;22.06;100.00
34243;BME280;20504;43.214;27.920;2022-09-09T04:11:55;96537.97;;;22.06;100.00
34243;BME280;20504;43.214;27.920;2022-09-09T04:14:25;96515.56;;;22.05;100.00
34243;BME280;20504;43.214;27.920;2022-09-09T04:16:57;96497.78;;;22.15;100.00
34243;BME280;20504;43.214;27.920;2022-09-09T04:22:04;96505.88;;;22.20;100.00
34243;BME280;20504;43.214;27.920;2022-09-09T04:24:30;96499.94;;;22.33;100.00
34243;BME280;20504;43.214;27.920;2022-09-09T04:27:16;96518.81;;;22.38;100.00
34243;BME280;20504;43.214;27.920;2022-09-09T04:29:44;96515.31;;;22.43;100.00
34243;BME280;20504;43.214;27.920;2022-09-09T04:32:15;96479.69;;;22.25;100.00
34243;BME280;20504;43.214;27.920;2022-09-09T04:34:51;96510.72;;;22.58;100.00
34243;BME280;20504;43.214;27.920;2022-09-09T04:37:25;96533.09;;;22.64;100.00
34243;BME280;20504;43.214;27.920;2022-09-09T04:39:53;96540.66;;;22.77;100.00
34243;BME280;20504;43.214;27.920;2022-09-09T04:44:46;96592.75;;;23.03;100.00
34243;BME280;20504;43.214;27.920;2022-09-09T04:47:12;96585.22;;;22.90;100.00
34243;BME280;20504;43.214;27.920;2022-09-09T04:49:38;96655.41;;;23.20;100.00
34243;BME280;20504;43.214;27.920;2022-09-09T04:52:04;96672.69;;;23.30;100.00
34243;BME280;20504;43.214;27.920;2022-09-09T04:54:30;96690.22;;;23.42;100.00
34243;BME280;20504;43.214;27.920;2022-09-09T04:56:55;96703.22;;;23.50;100.00
34243;BME280;20504;43.214;27.920;2022-09-09T04:59:22;96733.75;;;23.66;100.00
34243;BME280;20504;43.214;27.920;2022-09-09T05:01:51;96790.25;;;23.78;100.00
34243;BME280;20504;43.214;27.920;2022-09-09T05:04:16;96879.47;;;23.32;100.00
34243;BME280;20504;43.214;27.920;2022-09-09T05:06:42;96817.84;;;23.34;100.00
34243;BME280;20504;43.214;27.920;2022-09-09T05:09:08;96728.72;;;24.14;100.00
34243;BME280;20504;43.214;27.920;2022-09-09T05:11:34;96839.13;;;24.32;100.00
34243;BME280;20504;43.214;27.920;2022-09-09T05:14:03;96954.47;;;24.38;100.00
34243;BME280;20504;43.214;27.920;2022-09-09T05:16:30;99076.25;;;24.56;100.00
34243;BME280;20504;43.214;27.920;2022-09-09T05:18:56;99111.88;;;24.77;100.00
34243;BME280;20504;43.214;27.920;2022-09-09T05:21:24;99129.16;;;25.01;100.00
34243;BME280;20504;43.214;27.920;2022-09-09T05:23:55;99149.63;;;24.97;100.00
34243;BME280;20504;43.214;27.920;2022-09-09T05:26:35;99193.06;;;25.34;100.00
34243;BME280;20504;43.214;27.920;2022-09-09T05:29:02;99197.66;;;25.33;100.00
34243;BME280;20504;43.214;27.920;2022-09-09T05:31:29;99211.69;;;25.49;100.00
34243;BME280;20504;43.214;27.920;2022-09-09T05:33:55;99235.41;;;25.53;100.00
34243;BME280;20504;43.214;27.920;2022-09-09T05:36:22;99211.69;;;25.49;100.00
34243;BME280;20504;43.214;27.920;2022-09-09T05:38:49;99260.09;;;25.70;100.00
34243;BME280;20504;43.214;27.920;2022-09-09T05:41:16;99284.22;;;25.78;100.00
34243;BME280;20504;43.214;27.920;2022-09-09T05:43:43;99252.31;;;25.74;100.00
34243;BME280;20504;43.214;27.920;2022-09-09T05:46:19;99273.31;;;25.85;100.00
34243;BME280;20504;43.214;27.920;2022-09-09T05:48:46;99263.84;;;26.06;100.00
34243;BME280;20504;43.214;27.920;2022-09-09T05:51:29;99285.19;;;26.32;100.00
34243;BME280;20504;43.214;27.920;2022-09-09T05:54:00;99288.84;;;26.26;100.00
34243;BME280;20504;43.214;27.920;2022-09-09T05:56:28;99293.13;;;26.34;100.00
34243;BME280;20504;43.214;27.920;2022-09-09T05:59:00;99267.28;;;26.13;100.00
34243;BME280;20504;43.214;27.920;2022-09-09T06:06:57;99294.94;;;26.81;100.00
34243;BME280;20504;43.214;27.920;2022-09-09T06:09:27;99267.94;;;26.68;100.00
34243;BME280;20504;43.214;27.920;2022-09-09T06:11:54;99324.50;;;26.78;100.00
34243;BME280;20504;43.214;27.920;2022-09-09T06:14:19;99291.03;;;26.89;100.00
34243;BME280;20504;43.214;27.920;2022-09-09T06:16:48;99306.34;;;27.13;100.00
34243;BME280;20504;43.214;27.920;2022-09-09T06:19:15;99309.78;;;27.09;100.00
34243;BME280;20504;43.214;27.920;2022-09-09T06:21:41;99317.41;;;26.89;100.00
34243;BME280;20504;43.214;27.920;2022-09-09T06:24:09;99315.47;;;27.07;100.00
34243;BME280;20504;43.214;27.920;2022-09-09T06:26:39;99276.31;;;27.08;100.00
34243;BME280;20504;43.214;27.920;2022-09-09T06:29:09;99276.28;;;26.97;100.00
34243;BME280;20504;43.214;27.920;2022-09-09T06:31:36;99291.78;;;26.96;100.00
34243;BME280;20504;43.214;27.920;2022-09-09T06:34:05;99325.00;;;26.56;100.00
34243;BME280;20504;43.214;27.920;2022-09-09T06:36:38;99354.66;;;26.28;100.00
34243;BME280;20504;43.214;27.920;2022-09-09T06:39:14;99304.38;;;26.19;100.00
34243;BME280;20504;43.214;27.920;2022-09-09T06:41:41;99258.31;;;26.12;100.00
34243;BME280;20504;43.214;27.920;2022-09-09T06:44:08;99298.41;;;26.59;100.00
34243;BME280;20504;43.214;27.920;2022-09-09T06:46:37;99300.47;;;26.63;100.00
34243;BME280;20504;43.214;27.920;2022-09-09T06:51:59;99271.03;;;26.72;100.00
34243;BME280;20504;43.214;27.920;2022-09-09T06:55:20;99298.19;;;27.02;100.00
34243;BME280;20504;43.214;27.920;2022-09-09T07:00:33;99309.59;;;26.92;100.00
34243;BME280;20504;43.214;27.920;2022-09-09T07:03:19;99264.53;;;26.61;100.00
34243;BME280;20504;43.214;27.920;2022-09-09T07:06:13;99287.38;;;26.95;100.00
34243;BME280;20504;43.214;27.920;2022-09-09T07:08:58;99284.88;;;26.94;100.00
34243;BME280;20504;43.214;27.920;2022-09-09T07:11:33;99275.13;;;26.51;100.00
34243;BME280;20504;43.214;27.920;2022-09-09T07:14:04;99254.78;;;26.53;100.00
34243;BME280;20504;43.214;27.920;2022-09-09T07:16:34;99269.03;;;26.91;100.00
34243;BME280;20504;43.214;27.920;2022-09-09T07:19:07;99236.50;;;26.96;100.00
34243;BME280;20504;43.214;27.920;2022-09-09T07:21:33;99268.38;;;27.07;100.00
34243;BME280;20504;43.214;27.920;2022-09-09T07:24:00;99267.19;;;27.26;100.00
34243;BME280;20504;43.214;27.920;2022-09-09T07:26:29;99244.13;;;27.17;100.00
34243;BME280;20504;43.214;27.920;2022-09-09T07:28:59;99227.41;;;27.49;100.00
34243;BME280;20504;43.214;27.920;2022-09-09T07:37:30;99259.69;;;27.80;100.00
34243;BME280;20504;43.214;27.920;2022-09-09T07:40:10;99260.63;;;27.62;100.00
34243;BME280;20504;43.214;27.920;2022-09-09T07:42:58;99232.34;;;27.75;100.00
34243;BME280;20504;43.214;27.920;2022-09-09T07:45:44;99270.25;;;27.65;100.00
34243;BME280;20504;43.214;27.920;2022-09-09T07:48:16;99257.81;;;27.57;100.00
34243;BME280;20504;43.214;27.920;2022-09-09T07:51:25;99317.97;;;27.67;100.00
34243;BME280;20504;43.214;27.920;2022-09-09T07:56:47;99252.59;;;28.08;100.00
34243;BME280;20504;43.214;27.920;2022-09-09T08:00:16;99321.03;;;28.23;100.00
34243;BME280;20504;43.214;27.920;2022-09-09T08:06:19;99283.44;;;28.25;100.00
34243;BME280;20504;43.214;27.920;2022-09-09T08:09:02;99350.69;;;28.08;100.00
34243;BME280;20504;43.214;27.920;2022-09-09T08:15:11;99305.97;;;27.92;100.00
34243;BME280;20504;43.214;27.920;2022-09-09T08:18:20;99381.22;;;28.21;100.00
34243;BME280;20504;43.214;27.920;2022-09-09T08:21:53;99401.41;;;28.32;100.00
34243;BME280;20504;43.214;27.920;2022-09-09T08:24:35;99299.78;;;28.37;100.00
34243;BME280;20504;43.214;27.920;2022-09-09T08:28:07;99325.03;;;28.89;100.00
34243;BME280;20504;43.214;27.920;2022-09-09T08:31:28;99366.66;;;28.68;100.00
34243;BME280;20504;43.214;27.920;2022-09-09T08:34:25;99342.84;;;28.80;100.00
34243;BME280;20504;43.214;27.920;2022-09-09T08:37:17;99375.09;;;28.26;100.00
34243;BME280;20504;43.214;27.920;2022-09-09T08:40:26;99402.56;;;28.36;100.00
34243;BME280;20504;43.214;27.920;2022-09-09T08:46:26;99387.31;;;28.00;100.00
34243;BME280;20504;43.214;27.920;2022-09-09T08:55:59;99333.72;;;27.77;100.00
34243;BME280;20504;43.214;27.920;2022-09-09T09:16:41;99318.38;;;28.68;100.00
34243;BME280;20504;43.214;27.920;2022-09-09T09:19:25;99256.03;;;28.77;100.00
34243;BME280;20504;43.214;27.920;2022-09-09T09:28:17;99359.31;;;28.56;100.00
34243;BME280;20504;43.214;27.920;2022-09-09T09:33:38;99342.81;;;28.91;100.00
34243;BME280;20504;43.214;27.920;2022-09-09T09:36:11;99331.56;;;28.59;100.00
34243;BME280;20504;43.214;27.920;2022-09-09T09:38:54;99354.00;;;29.07;100.00
34243;BME280;20504;43.214;27.920;2022-09-09T09:41:36;99348.78;;;29.22;100.00
34243;BME280;20504;43.214;27.920;2022-09-09T09:49:09;99312.81;;;29.08;100.00
34243;BME280;20504;43.214;27.920;2022-09-09T09:51:35;99328.75;;;29.50;100.00
34243;BME280;20504;43.214;27.920;2022-09-09T09:54:15;99450.75;;;29.61;100.00
34243;BME280;20504;43.214;27.920;2022-09-09T09:56:45;99478.16;;;29.38;100.00
34243;BME280;20504;43.214;27.920;2022-09-09T09:59:33;99618.75;;;29.35;100.00
34243;BME280;20504;43.214;27.920;2022-09-09T10:04:38;99572.94;;;28.97;100.00
34243;BME280;20504;43.214;27.920;2022-09-09T10:07:23;99629.03;;;29.16;100.00
34243;BME280;20504;43.214;27.920;2022-09-09T10:09:54;99646.72;;;29.14;100.00
34243;BME280;20504;43.214;27.920;2022-09-09T10:18:00;99612.09;;;29.71;100.00
34243;BME280;20504;43.214;27.920;2022-09-09T10:29:37;99597.44;;;30.06;100.00
34243;BME280;20504;43.214;27.920;2022-09-09T10:35:25;99591.81;;;30.12;100.00
34243;BME280;20504;43.214;27.920;2022-09-09T10:41:00;99607.00;;;29.92;100.00
34243;BME280;20504;43.214;27.920;2022-09-09T10:49:17;99583.56;;;30.46;100.00
34243;BME280;20504;43.214;27.920;2022-09-09T10:54:42;99582.22;;;30.49;100.00
34243;BME280;20504;43.214;27.920;2022-09-09T10:57:36;99585.72;;;30.44;100.00
34243;BME280;20504;43.214;27.920;2022-09-09T11:00:45;99584.00;;;30.38;100.00
34243;BME280;20504;43.214;27.920;2022-09-09T11:03:35;99567.78;;;30.31;100.00
34243;BME280;20504;43.214;27.920;2022-09-09T11:06:13;99551.94;;;30.72;100.00
34243;BME280;20504;43.214;27.920;2022-09-09T11:08:43;99541.34;;;30.59;100.00
34243;BME280;20504;43.214;27.920;2022-09-09T11:14:09;99529.16;;;30.11;100.00
34243;BME280;20504;43.214;27.920;2022-09-09T11:19:40;99544.94;;;31.25;100.00
34243;BME280;20504;43.214;27.920;2022-09-09T11:25:15;99525.38;;;31.16;100.00
34243;BME280;20504;43.214;27.920;2022-09-09T11:27:53;99538.09;;;31.54;100.00
34243;BME280;20504;43.214;27.920;2022-09-09T11:30:25;99524.16;;;31.29;100.00
34243;BME280;20504;43.214;27.920;2022-09-09T11:36:37;99550.06;;;31.43;100.00
34243;BME280;20504;43.214;27.920;2022-09-09T11:42:20;99555.28;;;31.45;100.00
34243;BME280;20504;43.214;27.920;2022-09-09T11:44:57;99578.63;;;31.25;100.00
34243;BME280;20504;43.214;27.920;2022-09-09T11:47:35;99585.13;;;31.19;100.00
34243;BME280;20504;43.214;27.920;2022-09-09T11:50:38;99576.13;;;31.46;100.00
34243;BME280;20504;43.214;27.920;2022-09-09T11:53:34;99524.69;;;31.26;100.00
34243;BME280;20504;43.214;27.920;2022-09-09T11:56:29;99492.00;;;31.46;100.00
34243;BME280;20504;43.214;27.920;2022-09-09T11:59:49;99533.63;;;32.02;100.00
34243;BME280;20504;43.214;27.920;2022-09-09T12:02:52;99497.84;;;31.55;100.00
34243;BME280;20504;43.214;27.920;2022-09-09T12:05:37;99505.63;;;32.00;100.00
34243;BME280;20504;43.214;27.920;2022-09-09T12:08:11;99496.00;;;31.66;100.00
34243;BME280;20504;43.214;27.920;2022-09-09T12:10:57;99507.59;;;31.73;100.00
34243;BME280;20504;43.214;27.920;2022-09-09T12:13:52;99480.59;;;32.91;100.00
34243;BME280;20504;43.214;27.920;2022-09-09T12:16:45;99493.31;;;33.18;100.00
34243;BME280;20504;43.214;27.920;2022-09-09T12:19:32;99456.00;;;33.52;100.00
34243;BME280;20504;43.214;27.920;2022-09-09T12:28:11;99475.22;;;33.62;100.00
34243;BME280;20504;43.214;27.920;2022-09-09T12:31:01;99471.38;;;33.73;100.00
34243;BME280;20504;43.214;27.920;2022-09-09T12:33:36;99467.81;;;33.68;100.00
34243;BME280;20504;43.214;27.920;2022-09-09T12:36:05;99542.03;;;33.58;100.00
34243;BME280;20504;43.214;27.920;2022-09-09T12:38:42;99547.00;;;34.17;100.00
34243;BME280;20504;43.214;27.920;2022-09-09T12:41:27;99522.50;;;34.25;100.00
34243;BME280;20504;43.214;27.920;2022-09-09T12:47:30;99552.16;;;33.42;100.00
34243;BME280;20504;43.214;27.920;2022-09-09T12:50:21;99604.56;;;33.15;100.00
34243;BME280;20504;43.214;27.920;2022-09-09T12:58:56;99549.22;;;35.10;100.00
34243;BME280;20504;43.214;27.920;2022-09-09T13:03:57;99741.78;;;34.15;100.00
34243;BME280;20504;43.214;27.920;2022-09-09T13:06:31;99898.28;;;34.79;100.00
34243;BME280;20504;43.214;27.920;2022-09-09T13:09:01;99934.09;;;34.94;100.00
34243;BME280;20504;43.214;27.920;2022-09-09T13:11:47;100150.56;;;35.37;100.00
34243;BME280;20504;43.214;27.920;2022-09-09T13:14:35;100216.28;;;35.03;100.00
34243;BME280;20504;43.214;27.920;2022-09-09T13:17:38;100354.84;;;35.88;100.00
34243;BME280;20504;43.214;27.920;2022-09-09T13:20:35;100478.03;;;36.09;100.00
34243;BME280;20504;43.214;27.920;2022-09-09T13:25:40;100522.69;;;36.06;100.00
34243;BME280;20504;43.214;27.920;2022-09-09T13:28:21;100532.59;;;37.27;100.00
34243;BME280;20504;43.214;27.920;2022-09-09T13:31:23;100590.16;;;37.86;100.00
34243;BME280;20504;43.214;27.920;2022-09-09T13:33:55;100651.59;;;38.34;100.00
34243;BME280;20504;43.214;27.920;2022-09-09T13:39:00;100765.41;;;38.48;100.00
34243;BME280;20504;43.214;27.920;2022-09-09T13:41:50;100833.25;;;37.42;100.00
34243;BME280;20504;43.214;27.920;2022-09-09T13:44:31;100786.00;;;36.05;100.00
34243;BME280;20504;43.214;27.920;2022-09-09T13:47:29;100790.34;;;34.92;100.00
34243;BME280;20504;43.214;27.920;2022-09-09T13:49:57;100832.16;;;35.22;100.00
34243;BME280;20504;43.214;27.920;2022-09-09T13:52:24;100873.75;;;35.38;100.00
34243;BME280;20504;43.214;27.920;2022-09-09T13:54:54;100886.69;;;35.98;100.00
34243;BME280;20504;43.214;27.920;2022-09-09T13:57:25;100925.13;;;36.53;100.00
34243;BME280;20504;43.214;27.920;2022-09-09T13:59:52;100891.38;;;37.10;100.00
34243;BME280;20504;43.214;27.920;2022-09-09T14:02:20;100945.34;;;37.55;100.00
34243;BME280;20504;43.214;27.920;2022-09-09T14:04:50;100926.75;;;37.45;100.00
34243;BME280;20504;43.214;27.920;2022-09-09T14:07:24;100898.13;;;36.87;100.00
34243;BME280;20504;43.214;27.920;2022-09-09T14:09:53;100960.59;;;36.88;100.00
34243;BME280;20504;43.214;27.920;2022-09-09T14:12:18;100922.81;;;35.36;100.00
34243;BME280;20504;43.214;27.920;2022-09-09T14:14:47;100955.78;;;35.86;100.00
34243;BME280;20504;43.214;27.920;2022-09-09T14:17:14;100939.22;;;36.52;100.00
34243;BME280;20504;43.214;27.920;2022-09-09T14:19:40;100934.63;;;36.89;100.00
34243;BME280;20504;43.214;27.920;2022-09-09T14:22:06;100910.44;;;37.49;100.00
34243;BME280;20504;43.214;27.920;2022-09-09T14:24:32;100938.63;;;37.93;100.00
34243;BME280;20504;43.214;27.920;2022-09-09T14:27:00;100920.50;;;37.70;100.00
34243;BME280;20504;43.214;27.920;2022-09-09T14:29:29;100875.56;;;38.00;100.00
34243;BME280;20504;43.214;27.920;2022-09-09T14:31:58;100872.53;;;38.07;100.00
34243;BME280;20504;43.214;27.920;2022-09-09T14:34:26;100898.06;;;37.56;100.00
34243;BME280;20504;43.214;27.920;2022-09-09T14:36:54;100909.63;;;38.11;100.00
34243;BME280;20504;43.214;27.920;2022-09-09T14:39:20;100911.50;;;37.85;100.00
34243;BME280;20504;43.214;27.920;2022-09-09T14:41:46;100919.47;;;37.34;100.00
34243;BME280;20504;43.214;27.920;2022-09-09T14:44:28;100950.59;;;38.04;100.00
34243;BME280;20504;43.214;27.920;2022-09-09T14:46:54;100924.69;;;38.35;100.00
34243;BME280;20504;43.214;27.920;2022-09-09T14:49:21;100892.34;;;38.71;100.00
34243;BME280;20504;43.214;27.920;2022-09-09T14:51:47;100952.06;;;38.22;100.00
34243;BME280;20504;43.214;27.920;2022-09-09T14:54:13;100954.13;;;37.89;100.00
34243;BME280;20504;43.214;27.920;2022-09-09T15:02:29;100918.56;;;36.86;100.00
34243;BME280;20504;43.214;27.920;2022-09-09T15:04:59;100969.69;;;36.62;100.00
34243;BME280;20504;43.214;27.920;2022-09-09T15:07:26;100937.78;;;36.76;100.00
34243;BME280;20504;43.214;27.920;2022-09-09T15:09:55;100918.13;;;36.73;100.00
34243;BME280;20504;43.214;27.920;2022-09-09T15:12:23;100993.41;;;36.58;100.00
34243;BME280;20504;43.214;27.920;2022-09-09T15:14:52;100991.84;;;36.94;100.00
34243;BME280;20504;43.214;27.920;2022-09-09T15:17:21;100919.84;;;36.47;100.00
34243;BME280;20504;43.214;27.920;2022-09-09T15:19:49;100939.53;;;35.51;100.00
34243;BME280;20504;43.214;27.920;2022-09-09T15:22:16;101035.59;;;33.88;100.00
34243;BME280;20504;43.214;27.920;2022-09-09T15:24:47;100971.63;;;31.96;100.00
34243;BME280;20504;43.214;27.920;2022-09-09T15:27:22;100963.00;;;30.68;100.00
34243;BME280;20504;43.214;27.920;2022-09-09T15:29:54;100961.06;;;29.72;100.00
34243;BME280;20504;43.214;27.920;2022-09-09T15:32:28;100878.75;;;29.22;100.00
34243;BME280;20504;43.214;27.920;2022-09-09T15:34:55;100734.28;;;28.81;100.00
34243;BME280;20504;43.214;27.920;2022-09-09T15:37:25;100496.19;;;28.41;100.00
34243;BME280;20504;43.214;27.920;2022-09-09T15:39:51;99967.69;;;28.25;100.00
34243;BME280;20504;43.214;27.920;2022-09-09T15:42:22;99838.16;;;27.67;100.00
34243;BME280;20504;43.214;27.920;2022-09-09T15:44:52;99869.97;;;27.49;100.00
34243;BME280;20504;43.214;27.920;2022-09-09T15:47:21;99926.34;;;27.23;100.00
34243;BME280;20504;43.214;27.920;2022-09-09T15:50:01;99925.91;;;26.88;100.00
34243;BME280;20504;43.214;27.920;2022-09-09T15:52:33;99953.28;;;26.93;100.00
34243;BME280;20504;43.214;27.920;2022-09-09T15:54:59;99972.66;;;26.78;100.00
34243;BME280;20504;43.214;27.920;2022-09-09T15:57:37;99840.13;;;26.16;100.00
34243;BME280;20504;43.214;27.920;2022-09-09T16:00:11;99786.78;;;26.21;100.00
34243;BME280;20504;43.214;27.920;2022-09-09T16:02:40;99747.72;;;26.54;100.00
34243;BME280;20504;43.214;27.920;2022-09-09T16:05:09;99556.13;;;26.32;100.00
34243;BME280;20504;43.214;27.920;2022-09-09T16:11:23;99479.13;;;26.19;100.00
34243;BME280;20504;43.214;27.920;2022-09-09T16:14:14;99446.22;;;26.09;100.00
34243;BME280;20504;43.214;27.920;2022-09-09T16:16:44;99400.94;;;25.85;100.00
34243;BME280;20504;43.214;27.920;2022-09-09T16:19:12;99342.41;;;25.64;100.00
34243;BME280;20504;43.214;27.920;2022-09-09T16:21:47;99386.13;;;25.99;100.00
34243;BME280;20504;43.214;27.920;2022-09-09T16:24:18;99356.03;;;25.82;100.00
34243;BME280;20504;43.214;27.920;2022-09-09T16:26:48;99306.00;;;25.53;100.00
34243;BME280;20504;43.214;27.920;2022-09-09T16:29:20;99347.38;;;25.92;100.00
34243;BME280;20504;43.214;27.920;2022-09-09T16:31:52;99381.47;;;26.06;100.00
34243;BME280;20504;43.214;27.920;2022-09-09T16:34:27;99310.22;;;25.49;100.00